createdAt,value
2022-12-24T00:02:09.397Z,8.52
2022-12-24T00:05:50.594Z,8.57
2022-12-24T00:08:47.815Z,8.70
2022-12-24T00:11:28.961Z,8.69
2022-12-24T00:14:07.538Z,8.69
2022-12-24T00:16:38.552Z,8.72
2022-12-24T00:19:06.905Z,8.72
2022-12-24T00:21:34.039Z,8.74
2022-12-24T00:24:06.012Z,8.83
2022-12-24T00:26:46.243Z,8.84
2022-12-24T00:29:18.740Z,8.88
2022-12-24T00:31:48.503Z,8.90
2022-12-24T00:34:15.712Z,8.94
2022-12-24T00:36:50.877Z,8.91
2022-12-24T00:39:24.070Z,8.90
2022-12-24T00:41:57.451Z,8.93
2022-12-24T00:44:32.055Z,8.93
2022-12-24T00:47:12.140Z,8.90
2022-12-24T00:49:44.248Z,8.90
2022-12-24T00:52:27.165Z,8.83
2022-12-24T00:55:03.428Z,8.80
2022-12-24T00:57:36.669Z,8.73
2022-12-24T01:04:49.773Z,8.55
2022-12-24T01:07:31.197Z,8.53
2022-12-24T01:10:03.987Z,8.63
2022-12-24T01:12:36.344Z,8.60
2022-12-24T01:15:12.532Z,8.59
2022-12-24T01:17:43.832Z,8.52
2022-12-24T01:20:15.315Z,8.55
2022-12-24T01:22:49.535Z,8.57
2022-12-24T01:25:27.898Z,8.52
2022-12-24T01:27:59.199Z,8.48
2022-12-24T01:30:28.178Z,8.42
2022-12-24T01:33:02.839Z,8.46
2022-12-24T01:35:47.465Z,8.43
2022-12-24T01:38:34.383Z,8.48
2022-12-24T01:41:25.216Z,8.45
2022-12-24T01:43:54.007Z,8.45
2022-12-24T01:46:39.628Z,8.38
2022-12-24T01:49:18.756Z,8.48
2022-12-24T01:55:19.451Z,8.57
2022-12-24T01:58:03.064Z,8.63
2022-12-24T02:00:41.746Z,8.57
2022-12-24T02:03:11.664Z,8.59
2022-12-24T02:05:49.416Z,8.57
2022-12-24T02:08:20.202Z,8.53
2022-12-24T02:10:58.638Z,8.56
2022-12-24T02:13:26.968Z,8.53
2022-12-24T02:16:24.552Z,8.52
2022-12-24T02:19:01.075Z,8.48
2022-12-24T02:22:07.578Z,8.43
2022-12-24T02:24:54.127Z,8.52
2022-12-24T02:27:58.500Z,8.43
2022-12-24T02:31:02.017Z,8.38
2022-12-24T02:33:45.502Z,8.43
2022-12-24T02:36:45.026Z,8.43
2022-12-24T02:39:23.448Z,8.45
2022-12-24T02:42:07.312Z,8.46
2022-12-24T02:45:02.807Z,8.55
2022-12-24T02:47:43.294Z,8.72
2022-12-24T02:54:34.617Z,8.84
2022-12-24T02:57:33.033Z,8.91
2022-12-24T03:00:11.667Z,8.81
2022-12-24T03:03:08.874Z,8.73
2022-12-24T03:06:19.051Z,8.80
2022-12-24T03:09:17.291Z,8.76
2022-12-24T03:12:10.830Z,8.87
2022-12-24T03:14:42.140Z,8.81
2022-12-24T03:17:20.107Z,8.80
2022-12-24T03:19:53.380Z,8.77
2022-12-24T03:22:24.968Z,8.84
2022-12-24T03:24:59.045Z,8.91
2022-12-24T03:27:29.377Z,8.93
2022-12-24T03:30:04.781Z,8.84
2022-12-24T03:32:57.656Z,8.85
2022-12-24T03:35:32.680Z,8.84
2022-12-24T03:38:11.051Z,8.83
2022-12-24T03:40:38.219Z,8.83
2022-12-24T03:43:05.406Z,8.79
2022-12-24T03:45:42.954Z,8.79
2022-12-24T03:48:18.286Z,8.80
2022-12-24T03:50:50.200Z,8.83
2022-12-24T03:53:24.080Z,8.80
2022-12-24T03:55:59.452Z,8.81
2022-12-24T03:58:34.410Z,8.80
2022-12-24T04:01:06.473Z,8.79
2022-12-24T04:03:38.997Z,8.76
2022-12-24T04:06:17.848Z,8.67
2022-12-24T04:08:51.997Z,8.64
2022-12-24T04:11:24.686Z,8.59
2022-12-24T04:13:54.703Z,8.59
2022-12-24T04:16:32.834Z,8.57
2022-12-24T04:19:09.095Z,8.50
2022-12-24T04:21:46.005Z,8.50
2022-12-24T04:24:16.426Z,8.46
2022-12-24T04:35:36.482Z,8.39
2022-12-24T04:38:18.058Z,8.41
2022-12-24T04:40:49.884Z,8.41
2022-12-24T04:43:17.097Z,8.39
2022-12-24T04:45:55.747Z,8.43
2022-12-24T04:48:30.444Z,8.46
2022-12-24T04:50:57.652Z,8.50
2022-12-24T04:53:32.674Z,8.53
2022-12-24T04:56:03.737Z,8.52
2022-12-24T04:58:32.984Z,8.55
2022-12-24T05:01:08.073Z,8.55
2022-12-24T05:03:45.521Z,8.53
2022-12-24T05:06:18.230Z,8.56
2022-12-24T05:09:11.196Z,8.59
2022-12-24T05:11:47.335Z,8.64
2022-12-24T05:14:21.906Z,8.63
2022-12-24T05:16:52.085Z,8.63
2022-12-24T05:19:28.183Z,8.67
2022-12-24T05:22:16.533Z,8.66
2022-12-24T05:25:09.609Z,8.70
2022-12-24T05:27:55.227Z,8.72
2022-12-24T05:30:32.937Z,8.70
2022-12-24T05:33:29.281Z,8.69
2022-12-24T05:35:58.714Z,8.66
2022-12-24T05:38:31.899Z,8.60
2022-12-24T05:41:05.887Z,8.62
2022-12-24T05:43:50.371Z,8.59
2022-12-24T05:46:25.300Z,8.57
2022-12-24T05:49:16.439Z,8.59
2022-12-24T05:51:52.568Z,8.56
2022-12-24T05:54:21.674Z,8.49
2022-12-24T05:56:51.734Z,8.50
2022-12-24T05:59:31.278Z,8.49
2022-12-24T06:02:02.535Z,8.52
2022-12-24T06:04:35.151Z,8.53
2022-12-24T06:07:16.155Z,8.49
2022-12-24T06:09:50.475Z,8.42
2022-12-24T06:12:31.395Z,8.46
2022-12-24T06:14:58.582Z,8.46
2022-12-24T06:17:34.289Z,8.43
2022-12-24T06:20:04.355Z,8.45
2022-12-24T06:22:37.395Z,8.41
2022-12-24T06:25:05.218Z,8.45
2022-12-24T06:27:57.652Z,8.42
2022-12-24T06:30:31.625Z,8.36
2022-12-24T06:33:01.593Z,8.39
2022-12-24T06:35:39.517Z,8.41
2022-12-24T06:38:20.890Z,8.38
2022-12-24T06:41:01.570Z,8.45
2022-12-24T06:43:37.134Z,8.46
2022-12-24T06:46:07.077Z,8.41
2022-12-24T06:48:43.128Z,8.49
2022-12-24T06:51:26.379Z,8.42
2022-12-24T06:54:08.869Z,8.38
2022-12-24T06:56:42.467Z,8.39
2022-12-24T06:59:19.121Z,8.39
2022-12-24T07:01:59.699Z,8.39
2022-12-24T07:04:35.893Z,8.50
2022-12-24T07:07:17.206Z,8.52
2022-12-24T07:09:51.987Z,8.62
2022-12-24T07:12:24.022Z,8.64
2022-12-24T07:14:53.576Z,8.64
2022-12-24T07:17:29.257Z,8.67
2022-12-24T07:20:05.755Z,8.64
2022-12-24T07:22:38.474Z,8.63
2022-12-24T07:25:27.565Z,8.62
2022-12-24T07:28:08.402Z,8.64
2022-12-24T07:30:44.974Z,8.69
2022-12-24T07:37:39.766Z,8.74
2022-12-24T07:40:13.818Z,8.79
2022-12-24T07:42:53.011Z,8.91
2022-12-24T07:45:29.785Z,8.88
2022-12-24T07:48:03.707Z,8.93
2022-12-24T07:50:44.689Z,9.01
2022-12-24T07:53:21.015Z,9.03
2022-12-24T07:56:08.976Z,9.04
2022-12-24T07:58:44.889Z,9.04
2022-12-24T08:01:18.174Z,9.07
2022-12-24T08:03:56.314Z,9.10
2022-12-24T08:06:32.594Z,9.10
2022-12-24T08:09:06.276Z,9.15
2022-12-24T08:11:38.588Z,9.21
2022-12-24T08:14:13.221Z,9.22
2022-12-24T08:16:51.028Z,9.27
2022-12-24T08:19:18.249Z,9.31
2022-12-24T08:22:20.487Z,9.38
2022-12-24T08:29:14.224Z,9.56
2022-12-24T08:31:55.211Z,9.65
2022-12-24T08:34:28.353Z,9.65
2022-12-24T08:37:03.566Z,9.65
2022-12-24T08:39:30.847Z,9.75
2022-12-24T08:42:10.121Z,9.83
2022-12-24T08:44:46.143Z,9.90
2022-12-24T08:47:33.544Z,9.97
2022-12-24T08:50:12.135Z,10.07
2022-12-24T08:52:53.422Z,10.16
2022-12-24T08:55:35.224Z,10.20
2022-12-24T08:58:08.943Z,10.31
2022-12-24T09:00:44.216Z,10.35
2022-12-24T09:03:26.743Z,10.42
2022-12-24T09:06:02.874Z,10.54
2022-12-24T09:08:34.160Z,10.59
2022-12-24T09:11:17.800Z,10.59
2022-12-24T09:13:51.723Z,10.65
2022-12-24T09:16:24.893Z,10.69
2022-12-24T09:19:06.869Z,10.73
2022-12-24T09:21:37.049Z,10.79
2022-12-24T09:24:15.383Z,10.86
2022-12-24T09:26:55.654Z,10.88
2022-12-24T09:29:28.063Z,10.96
2022-12-24T09:32:11.054Z,11.02
2022-12-24T09:34:53.907Z,11.07
2022-12-24T09:37:27.321Z,11.11
2022-12-24T09:40:05.919Z,11.09
2022-12-24T09:42:54.219Z,11.13
2022-12-24T09:45:35.167Z,11.21
2022-12-24T09:48:27.294Z,11.24
2022-12-24T09:51:09.493Z,11.40
2022-12-24T09:54:02.255Z,11.47
2022-12-24T09:56:52.432Z,11.51
2022-12-24T09:59:41.011Z,11.50
2022-12-24T10:02:20.221Z,11.51
2022-12-24T10:04:49.171Z,11.58
2022-12-24T10:07:33.565Z,11.67
2022-12-24T10:10:37.619Z,11.72
2022-12-24T10:14:22.325Z,11.90
2022-12-24T10:17:24.084Z,12.13
2022-12-24T10:20:43.460Z,12.13
2022-12-24T10:23:52.190Z,12.32
2022-12-24T10:27:02.486Z,12.41
2022-12-24T10:29:36.541Z,12.48
2022-12-24T10:32:33.429Z,12.44
2022-12-24T10:35:23.048Z,12.36
2022-12-24T10:37:58.374Z,12.51
2022-12-24T10:40:53.491Z,12.43
2022-12-24T10:43:28.404Z,12.41
2022-12-24T10:46:04.858Z,12.47
2022-12-24T10:48:50.894Z,12.47
2022-12-24T10:51:32.972Z,12.46
2022-12-24T10:54:27.298Z,12.63
2022-12-24T10:57:27.172Z,12.53
2022-12-24T11:00:22.409Z,12.64
2022-12-24T11:03:16.926Z,12.67
2022-12-24T11:06:01.449Z,12.61
2022-12-24T11:08:31.857Z,12.67
2022-12-24T11:11:11.126Z,12.71
2022-12-24T11:13:44.656Z,12.74
2022-12-24T11:16:25.853Z,12.84
2022-12-24T11:19:05.773Z,12.81
2022-12-24T11:21:45.257Z,12.85
2022-12-24T11:24:38.474Z,12.75
2022-12-24T11:27:47.984Z,12.82
2022-12-24T11:30:32.448Z,12.87
2022-12-24T11:33:07.265Z,12.89
2022-12-24T11:35:49.169Z,12.92
2022-12-24T11:38:36.733Z,12.95
2022-12-24T11:41:11.904Z,12.99
2022-12-24T11:43:53.417Z,13.02
2022-12-24T11:46:44.428Z,13.02
2022-12-24T11:49:27.431Z,13.05
2022-12-24T11:52:32.724Z,12.99
2022-12-24T11:56:12.339Z,12.93
2022-12-24T11:58:52.701Z,12.88
2022-12-24T12:01:46.640Z,12.88
2022-12-24T12:04:19.223Z,12.91
2022-12-24T12:07:01.534Z,12.93
2022-12-24T12:10:06.865Z,12.93
2022-12-24T12:13:02.088Z,13.03
2022-12-24T12:16:25.118Z,12.89
2022-12-24T12:19:15.001Z,12.95
2022-12-24T12:21:49.969Z,13.01
2022-12-24T12:24:32.702Z,12.99
2022-12-24T12:27:41.555Z,13.03
2022-12-24T12:30:26.193Z,12.93
2022-12-24T12:33:26.926Z,13.02
2022-12-24T12:36:03.109Z,13.08
2022-12-24T12:38:37.033Z,12.99
2022-12-24T12:45:42.071Z,12.98
2022-12-24T12:48:35.332Z,12.88
2022-12-24T12:51:26.010Z,12.89
2022-12-24T12:54:23.178Z,12.78
2022-12-24T12:56:56.910Z,12.82
2022-12-24T12:59:37.597Z,12.92
2022-12-24T13:02:37.416Z,12.99
2022-12-24T13:05:44.569Z,13.03
2022-12-24T13:08:39.477Z,12.93
2022-12-24T13:11:46.892Z,12.99
2022-12-24T13:14:18.303Z,12.99
2022-12-24T13:17:24.052Z,12.89
2022-12-24T13:20:17.973Z,12.82
2022-12-24T13:23:08.323Z,12.75
2022-12-24T13:26:52.089Z,12.65
2022-12-24T13:30:09.808Z,12.71
2022-12-24T13:33:03.258Z,12.69
2022-12-24T13:35:41.732Z,12.71
2022-12-24T13:38:29.882Z,12.71
2022-12-24T13:41:44.368Z,12.68
2022-12-24T13:44:20.296Z,12.64
2022-12-24T13:47:18.838Z,12.69
2022-12-24T13:49:57.741Z,12.67
2022-12-24T13:52:42.150Z,12.84
2022-12-24T13:55:19.434Z,12.89
2022-12-24T13:58:04.053Z,12.69
2022-12-24T14:00:40.376Z,12.67
2022-12-24T14:03:13.987Z,12.50
2022-12-24T14:05:48.744Z,12.47
2022-12-24T14:08:46.240Z,12.30
2022-12-24T14:11:48.767Z,12.41
2022-12-24T14:14:35.101Z,12.37
2022-12-24T14:17:31.264Z,12.30
2022-12-24T14:20:14.131Z,12.19
2022-12-24T14:22:46.949Z,12.12
2022-12-24T14:25:18.515Z,12.09
2022-12-24T14:28:11.487Z,12.02
2022-12-24T14:30:40.641Z,11.95
2022-12-24T14:33:38.979Z,11.93
2022-12-24T14:36:18.130Z,12.02
2022-12-24T14:38:54.277Z,11.98
2022-12-24T14:41:42.097Z,11.95
2022-12-24T14:44:30.920Z,11.86
2022-12-24T14:47:14.317Z,11.82
2022-12-24T14:50:17.367Z,11.75
2022-12-24T14:53:11.949Z,11.77
2022-12-24T14:55:49.311Z,11.59
2022-12-24T14:58:33.224Z,11.50
2022-12-24T15:01:19.294Z,11.32
2022-12-24T15:04:41.019Z,11.14
2022-12-24T15:07:21.497Z,11.00
2022-12-24T15:09:51.194Z,10.88
2022-12-24T15:12:32.964Z,10.76
2022-12-24T15:15:20.633Z,10.72
2022-12-24T15:17:50.701Z,10.59
2022-12-24T15:20:24.752Z,10.49
2022-12-24T15:23:32.101Z,10.37
2022-12-24T15:26:23.772Z,10.21
2022-12-24T15:29:02.272Z,10.03
2022-12-24T15:31:36.416Z,9.94
2022-12-24T15:34:26.609Z,9.82
2022-12-24T15:37:07.477Z,9.75
2022-12-24T15:40:06.309Z,9.65
2022-12-24T15:42:50.153Z,9.53
2022-12-24T15:45:28.485Z,9.45
2022-12-24T15:48:02.393Z,9.41
2022-12-24T15:50:56.836Z,9.27
2022-12-24T15:53:26.889Z,9.18
2022-12-24T15:56:17.337Z,9.00
2022-12-24T15:58:53.159Z,8.93
2022-12-24T16:01:48.839Z,8.91
2022-12-24T16:04:29.271Z,8.85
2022-12-24T16:07:11.727Z,8.84
2022-12-24T16:09:52.594Z,8.91
2022-12-24T16:12:30.467Z,9.00
2022-12-24T16:15:19.902Z,8.97
2022-12-24T16:17:57.540Z,9.05
2022-12-24T16:20:35.078Z,9.04
2022-12-24T16:23:05.276Z,8.97
2022-12-24T16:25:44.806Z,8.94
2022-12-24T16:28:23.952Z,8.88
2022-12-24T16:30:59.431Z,8.81
2022-12-24T16:33:29.136Z,8.79
2022-12-24T16:36:07.383Z,8.77
2022-12-24T16:39:02.260Z,8.76
2022-12-24T16:41:55.207Z,8.69
2022-12-24T16:44:27.925Z,8.62
2022-12-24T16:46:57.949Z,8.55
2022-12-24T16:49:35.196Z,8.48
2022-12-24T16:52:13.245Z,8.38
2022-12-24T16:54:48.727Z,8.26
2022-12-24T16:57:24.345Z,8.28
2022-12-24T16:59:56.838Z,8.20
2022-12-24T17:02:27.319Z,8.16
2022-12-24T17:05:01.329Z,8.11
2022-12-24T17:07:31.621Z,8.11
2022-12-24T17:09:58.750Z,7.98
2022-12-24T17:12:32.718Z,7.88
2022-12-24T17:15:12.640Z,7.80
2022-12-24T17:17:55.907Z,7.77
2022-12-24T17:20:25.784Z,7.74
2022-12-24T17:22:53.502Z,7.55
2022-12-24T17:25:23.364Z,7.52
2022-12-24T17:27:56.068Z,7.45
2022-12-24T17:30:32.972Z,7.26
2022-12-24T17:33:14.700Z,7.30
2022-12-24T17:35:50.391Z,7.14
2022-12-24T17:38:19.967Z,7.15
2022-12-24T17:40:47.102Z,7.07
2022-12-24T17:43:15.775Z,7.08
2022-12-24T17:45:50.389Z,7.05
2022-12-24T17:48:23.466Z,7.00
2022-12-24T17:51:03.005Z,6.97
2022-12-24T17:53:42.554Z,6.95
2022-12-24T17:56:27.935Z,6.92
2022-12-24T17:59:00.109Z,6.97
2022-12-24T18:01:35.097Z,7.18
2022-12-24T18:04:08.931Z,7.36
2022-12-24T18:06:47.254Z,7.49
2022-12-24T18:09:27.029Z,7.57
2022-12-24T18:11:59.630Z,7.62
2022-12-24T18:14:32.732Z,7.59
2022-12-24T18:16:59.942Z,7.53
2022-12-24T18:19:34.824Z,7.55
2022-12-24T18:22:03.181Z,7.50
2022-12-24T18:24:41.376Z,7.49
2022-12-24T18:27:17.038Z,7.40
2022-12-24T18:29:50.794Z,7.38
2022-12-24T18:32:22.499Z,7.38
2022-12-24T18:34:53.361Z,7.40
2022-12-24T18:37:36.662Z,7.38
2022-12-24T18:40:07.683Z,7.40
2022-12-24T18:42:51.437Z,7.47
2022-12-24T18:45:29.607Z,7.47
2022-12-24T18:47:59.088Z,7.50
2022-12-24T18:50:44.046Z,7.52
2022-12-24T18:53:16.523Z,7.50
2022-12-24T18:55:55.313Z,7.46
2022-12-24T18:58:37.693Z,7.42
2022-12-24T19:01:18.199Z,7.35
2022-12-24T19:04:00.102Z,7.33
2022-12-24T19:09:26.354Z,7.22
2022-12-24T19:12:00.315Z,7.23
2022-12-24T19:14:32.439Z,7.18
2022-12-24T19:17:17.865Z,7.14
2022-12-24T19:19:46.048Z,7.09
2022-12-24T19:22:16.359Z,7.14
2022-12-24T19:24:43.485Z,7.02
2022-12-24T19:27:15.123Z,6.88
2022-12-24T19:29:47.883Z,6.91
2022-12-24T19:32:20.397Z,6.91
2022-12-24T19:34:49.553Z,6.87
2022-12-24T19:37:21.155Z,6.85
2022-12-24T19:39:55.538Z,6.84
2022-12-24T19:42:29.531Z,6.61
2022-12-24T19:45:02.354Z,6.49
2022-12-24T19:47:38.117Z,6.53
2022-12-24T19:50:06.113Z,6.46
2022-12-24T19:52:40.359Z,6.46
2022-12-24T19:55:31.025Z,6.44
2022-12-24T19:58:08.377Z,6.53
2022-12-24T20:00:45.693Z,6.52
2022-12-24T20:03:23.691Z,6.56
2022-12-24T20:05:58.755Z,6.63
2022-12-24T20:08:28.634Z,6.61
2022-12-24T20:11:07.090Z,6.58
2022-12-24T20:13:43.447Z,6.52
2022-12-24T20:16:33.642Z,6.49
2022-12-24T20:19:03.984Z,6.43
2022-12-24T20:21:39.349Z,6.42
2022-12-24T20:24:09.295Z,6.33
2022-12-24T20:29:40.640Z,6.25
2022-12-24T20:32:10.730Z,6.15
2022-12-24T20:34:46.908Z,6.08
2022-12-24T20:37:20.585Z,6.04
2022-12-24T20:39:54.082Z,6.04
2022-12-24T20:42:29.806Z,6.01
2022-12-24T20:45:23.811Z,5.95
2022-12-24T20:48:00.398Z,5.94
2022-12-24T20:50:30.544Z,5.88
2022-12-24T20:53:02.365Z,5.88
2022-12-24T20:56:21.935Z,5.94
2022-12-24T20:59:20.983Z,5.99
2022-12-24T21:02:02.948Z,6.09
2022-12-24T21:04:36.949Z,6.09
2022-12-24T21:07:04.272Z,5.94
2022-12-24T21:09:43.410Z,6.04
2022-12-24T21:12:48.392Z,6.05
2022-12-24T21:15:29.372Z,5.94
2022-12-24T21:18:12.238Z,5.99
2022-12-24T21:20:53.135Z,5.91
2022-12-24T21:23:25.822Z,5.78
2022-12-24T21:26:08.282Z,5.68
2022-12-24T21:28:38.307Z,5.71
2022-12-24T21:31:10.458Z,5.83
2022-12-24T21:33:38.607Z,5.83
2022-12-24T21:36:09.261Z,5.91
2022-12-24T21:38:46.755Z,5.95
2022-12-24T21:41:23.780Z,6.09
2022-12-24T21:44:00.788Z,6.11
2022-12-24T21:46:28.373Z,6.12
2022-12-24T21:49:15.216Z,6.18
2022-12-24T21:51:55.861Z,6.15
2022-12-24T21:54:35.108Z,6.15
2022-12-24T21:57:28.508Z,6.19
2022-12-24T22:01:09.272Z,6.23
2022-12-24T22:04:07.153Z,6.23
2022-12-24T22:07:01.747Z,6.23
2022-12-24T22:09:52.549Z,6.21
2022-12-24T22:12:21.166Z,6.22
2022-12-24T22:14:48.472Z,6.21
2022-12-24T22:17:25.414Z,6.19
2022-12-24T22:20:09.819Z,6.22
2022-12-24T22:22:39.403Z,6.19
2022-12-24T22:25:20.644Z,6.19
2022-12-24T22:27:53.228Z,6.12
2022-12-24T22:30:24.749Z,6.08
2022-12-24T22:32:55.302Z,6.08
2022-12-24T22:35:32.375Z,6.05
2022-12-24T22:38:11.255Z,6.06
2022-12-24T22:40:49.108Z,6.04
2022-12-24T22:48:10.229Z,5.98
2022-12-24T22:50:53.845Z,5.98
2022-12-24T22:53:21.473Z,6.02
2022-12-24T22:55:57.992Z,6.08
2022-12-24T22:58:37.156Z,6.09
2022-12-24T23:01:16.130Z,6.09
2022-12-24T23:06:46.408Z,6.02
2022-12-24T23:09:21.237Z,6.01
2022-12-24T23:11:54.032Z,5.95
2022-12-24T23:14:54.570Z,5.90
2022-12-24T23:17:26.478Z,5.74
2022-12-24T23:20:02.338Z,5.78
2022-12-24T23:22:40.964Z,5.77
2022-12-24T23:25:23.177Z,5.66
2022-12-24T23:27:59.099Z,5.64
2022-12-24T23:30:28.861Z,5.67
2022-12-24T23:33:02.746Z,5.73
2022-12-24T23:35:41.097Z,5.73
2022-12-24T23:38:19.534Z,5.71
2022-12-24T23:40:51.042Z,5.57
2022-12-24T23:43:39.237Z,5.83
2022-12-24T23:46:21.878Z,5.50
2022-12-24T23:49:00.589Z,5.63
2022-12-24T23:51:31.824Z,5.48
2022-12-24T23:54:04.322Z,5.47
2022-12-24T23:56:38.660Z,5.40
2022-12-24T23:59:09.015Z,5.47
